Time;durP1;ratioP1;P1;durP2;ratioP2;P2;SDS_P1;SDS_P2;PMS_P1;PMS_P2;Temp;Humidity;BMP_temperature;BMP_pressure;BME280_temperature;BME280_humidity;BME280_pressure;Samples;Min_cycle;Max_cycle;Signal;HPM_P1;HPM_P2
2024/02/19 00:01:51;;;;;;;5.32;2.88;;;11.00;99.90;;;;;;5025163;28;20113;-87
2024/02/19 00:04:17;;;;;;;6.85;3.38;;;11.00;99.90;;;;;;5032995;28;20059;-87
2024/02/19 00:06:43;;;;;;;5.28;2.95;;;11.00;99.90;;;;;;5025892;28;20028;-88
2024/02/19 00:09:08;;;;;;;6.20;3.38;;;11.00;99.90;;;;;;5033058;28;20029;-87
2024/02/19 00:11:34;;;;;;;6.47;3.35;;;11.00;99.90;;;;;;5033338;28;20694;-88
2024/02/19 00:13:59;;;;;;;7.32;3.28;;;11.00;99.90;;;;;;5032573;28;20030;-88
2024/02/19 00:16:25;;;;;;;4.18;3.17;;;11.00;99.90;;;;;;5052631;28;20495;-88
2024/02/19 00:18:50;;;;;;;5.57;2.80;;;11.00;99.90;;;;;;5034724;28;20030;-86
2024/02/19 00:21:17;;;;;;;5.93;3.03;;;11.00;99.90;;;;;;5028384;28;20479;-88
2024/02/19 00:23:42;;;;;;;6.20;3.35;;;11.00;99.90;;;;;;5024997;28;20064;-88
2024/02/19 00:26:08;;;;;;;4.88;3.22;;;11.00;99.90;;;;;;5030420;28;20029;-88
2024/02/19 00:28:33;;;;;;;6.63;3.67;;;10.90;99.90;;;;;;5025271;28;20029;-87
2024/02/19 00:30:59;;;;;;;6.78;3.35;;;10.90;99.90;;;;;;5051592;28;20116;-88
2024/02/19 00:33:24;;;;;;;5.45;3.13;;;10.90;99.90;;;;;;5027651;28;20033;-88
2024/02/19 00:35:50;;;;;;;6.93;3.28;;;10.90;99.90;;;;;;5034610;28;20043;-87
2024/02/19 00:38:17;;;;;;;3.75;2.60;;;10.90;99.90;;;;;;5036204;28;20032;-87
2024/02/19 00:40:43;;;;;;;5.00;3.22;;;11.00;99.90;;;;;;5033626;28;20025;-87
2024/02/19 00:43:08;;;;;;;5.93;3.25;;;10.90;99.90;;;;;;5035412;28;20079;-88
2024/02/19 00:45:34;;;;;;;8.63;3.17;;;10.90;99.90;;;;;;5034812;28;20033;-88
2024/02/19 00:48:00;;;;;;;4.32;3.17;;;10.90;99.90;;;;;;5042390;28;20373;-88
2024/02/19 00:50:25;;;;;;;6.75;3.15;;;10.90;99.90;;;;;;5034096;28;20049;-88
2024/02/19 00:52:51;;;;;;;5.32;2.95;;;10.90;99.90;;;;;;5032727;28;20542;-88
2024/02/19 00:55:21;;;;;;;5.15;2.95;;;10.90;99.90;;;;;;5024417;28;20040;-89
2024/02/19 00:57:47;;;;;;;5.57;3.00;;;10.90;99.90;;;;;;5048488;28;20100;-88
2024/02/19 01:00:13;;;;;;;6.57;3.10;;;10.90;99.90;;;;;;5036149;28;20018;-88
2024/02/19 01:02:40;;;;;;;6.75;2.80;;;10.90;99.90;;;;;;5032633;28;20172;-88
2024/02/19 01:05:06;;;;;;;5.00;2.42;;;10.90;99.90;;;;;;5020847;28;20052;-89
2024/02/19 01:07:32;;;;;;;5.07;3.13;;;10.90;99.90;;;;;;5032663;28;20079;-88
2024/02/19 01:09:58;;;;;;;6.90;2.65;;;10.90;99.90;;;;;;5031631;28;20471;-88
2024/02/19 01:12:24;;;;;;;4.97;2.80;;;10.90;99.90;;;;;;5030474;28;20071;-88
2024/02/19 01:14:49;;;;;;;8.55;2.85;;;10.90;99.90;;;;;;5028673;28;20506;-88
2024/02/19 01:17:15;;;;;;;5.00;3.00;;;10.90;99.90;;;;;;5040085;28;20072;-87
2024/02/19 01:19:41;;;;;;;4.90;2.50;;;10.90;99.90;;;;;;5025368;28;20100;-88
2024/02/19 01:22:06;;;;;;;6.80;2.95;;;10.90;99.90;;;;;;5029250;28;20049;-88
2024/02/19 01:24:32;;;;;;;5.40;2.75;;;10.90;99.90;;;;;;5033440;28;20025;-89
2024/02/19 01:26:59;;;;;;;3.70;2.47;;;10.90;99.90;;;;;;5024269;28;20491;-88
2024/02/19 01:29:25;;;;;;;11.23;2.75;;;10.90;99.90;;;;;;5034537;28;20021;-88
2024/02/19 01:31:51;;;;;;;4.18;2.15;;;10.90;99.90;;;;;;5032599;28;20143;-88
2024/02/19 01:34:18;;;;;;;5.18;2.15;;;10.90;99.90;;;;;;5027250;28;20052;-89
2024/02/19 01:36:46;;;;;;;5.72;2.55;;;10.90;99.90;;;;;;5029301;28;20014;-88
2024/02/19 01:39:12;;;;;;;3.35;2.40;;;10.80;99.90;;;;;;5032383;28;20028;-88
2024/02/19 01:41:37;;;;;;;3.38;2.05;;;10.90;99.90;;;;;;5038375;28;20379;-89
2024/02/19 01:44:04;;;;;;;4.03;2.08;;;10.80;99.90;;;;;;5024157;28;20026;-89
2024/02/19 01:46:31;;;;;;;3.38;2.47;;;10.90;99.90;;;;;;5032960;28;20021;-88
2024/02/19 01:48:57;;;;;;;3.90;2.42;;;10.80;99.90;;;;;;5026955;28;20490;-89
2024/02/19 01:51:23;;;;;;;2.72;2.17;;;10.90;99.90;;;;;;5037196;28;20138;-88
2024/02/19 01:53:50;;;;;;;5.43;2.38;;;10.90;99.90;;;;;;5037277;28;20518;-88
2024/02/19 01:56:17;;;;;;;2.95;2.10;;;10.80;99.90;;;;;;5049001;28;20022;-88
2024/02/19 01:58:44;;;;;;;4.43;2.05;;;10.90;99.90;;;;;;5029318;28;20017;-89
2024/02/19 02:01:13;;;;;;;3.08;2.10;;;10.90;99.90;;;;;;5045374;28;20013;-87
2024/02/19 02:03:42;;;;;;;2.27;1.87;;;10.80;99.90;;;;;;5033266;28;20017;-88
2024/02/19 02:06:07;;;;;;;2.92;1.67;;;10.90;99.90;;;;;;5039174;28;20020;-87
2024/02/19 02:08:33;;;;;;;4.80;1.90;;;10.90;99.90;;;;;;5025781;28;20386;-88
2024/02/19 02:10:59;;;;;;;3.60;2.00;;;10.90;99.90;;;;;;5029238;28;20719;-88
2024/02/19 02:13:24;;;;;;;3.08;2.22;;;10.90;99.90;;;;;;5040662;28;20460;-88
2024/02/19 02:15:50;;;;;;;4.75;1.90;;;10.90;99.90;;;;;;5032983;28;20031;-88
2024/02/19 02:18:16;;;;;;;2.25;1.50;;;10.90;99.90;;;;;;5024495;28;20448;-88
2024/02/19 02:20:44;;;;;;;2.05;1.58;;;10.80;99.90;;;;;;5030329;28;20471;-88
2024/02/19 02:23:12;;;;;;;3.30;1.80;;;10.90;99.90;;;;;;5030532;28;20017;-87
2024/02/19 02:25:37;;;;;;;2.58;1.70;;;10.90;99.90;;;;;;5031878;28;20026;-88
2024/02/19 02:28:03;;;;;;;1.50;1.35;;;10.90;99.90;;;;;;5028614;28;20079;-88
2024/02/19 02:30:29;;;;;;;3.88;2.30;;;10.90;99.90;;;;;;5022795;28;20026;-88
2024/02/19 02:32:55;;;;;;;3.47;1.70;;;10.90;99.90;;;;;;5028185;28;20032;-88
2024/02/19 02:35:25;;;;;;;5.05;1.45;;;10.80;99.90;;;;;;5031391;28;20017;-88
2024/02/19 02:37:50;;;;;;;2.00;1.50;;;10.90;99.90;;;;;;5031396;28;20103;-89
2024/02/19 02:40:16;;;;;;;2.25;1.67;;;10.90;99.90;;;;;;5029069;28;20600;-88
2024/02/19 02:42:43;;;;;;;5.03;1.77;;;10.90;99.90;;;;;;5030515;28;20097;-87
2024/02/19 02:45:09;;;;;;;2.15;1.55;;;10.80;99.90;;;;;;5025994;28;20018;-88
2024/02/19 02:47:34;;;;;;;2.28;1.58;;;10.80;99.90;;;;;;5020948;28;20033;-90
2024/02/19 02:50:00;;;;;;;3.70;1.65;;;10.80;99.90;;;;;;5018674;28;20483;-88
2024/02/19 02:52:26;;;;;;;2.38;1.63;;;10.80;99.90;;;;;;5041124;28;20395;-88
2024/02/19 02:54:52;;;;;;;1.90;1.70;;;10.90;99.90;;;;;;5048646;28;20053;-87
2024/02/19 02:57:17;;;;;;;5.38;1.40;;;10.80;99.90;;;;;;5037317;28;20099;-89
2024/02/19 02:59:43;;;;;;;1.60;1.40;;;10.90;99.90;;;;;;5029237;28;20021;-90
2024/02/19 03:02:09;;;;;;;1.60;1.45;;;10.90;99.90;;;;;;5024685;28;20072;-88
2024/02/19 03:04:34;;;;;;;2.30;1.58;;;10.90;99.90;;;;;;5031224;28;20022;-87
2024/02/19 03:07:00;;;;;;;2.83;1.42;;;10.90;99.90;;;;;;5035549;28;20030;-87
2024/02/19 03:09:25;;;;;;;2.70;1.42;;;10.90;99.90;;;;;;5032523;28;20056;-88
2024/02/19 03:11:51;;;;;;;1.83;1.50;;;10.80;99.90;;;;;;5029166;28;20549;-90
2024/02/19 03:14:17;;;;;;;4.63;1.52;;;10.90;99.90;;;;;;5030342;28;20045;-89
2024/02/19 03:16:42;;;;;;;2.03;1.27;;;10.90;99.90;;;;;;5030964;28;20482;-88
2024/02/19 03:19:13;;;;;;;2.08;1.23;;;10.80;99.90;;;;;;5019341;28;20014;-88
2024/02/19 03:21:40;;;;;;;1.58;1.25;;;10.80;99.90;;;;;;5028004;28;20017;-87
2024/02/19 03:24:07;;;;;;;1.63;1.30;;;10.80;99.90;;;;;;5026030;28;20025;-88
2024/02/19 03:26:33;;;;;;;1.42;1.20;;;10.80;99.90;;;;;;5024213;28;20033;-88
2024/02/19 03:28:58;;;;;;;1.67;1.17;;;10.80;99.90;;;;;;5027397;28;20017;-87
2024/02/19 03:31:24;;;;;;;1.75;1.20;;;10.80;99.90;;;;;;5030869;28;20059;-88
2024/02/19 03:33:50;;;;;;;2.08;1.25;;;10.80;99.90;;;;;;5046298;28;20026;-88
2024/02/19 03:36:16;;;;;;;3.00;1.65;;;10.90;99.90;;;;;;5029731;28;20018;-88
2024/02/19 03:38:42;;;;;;;1.15;1.10;;;10.90;99.90;;;;;;5036938;28;20099;-88
2024/02/19 03:41:08;;;;;;;1.25;1.10;;;10.80;99.90;;;;;;5024002;28;20053;-89
2024/02/19 03:43:34;;;;;;;3.17;0.98;;;10.90;99.90;;;;;;5030031;28;20049;-89
2024/02/19 03:46:05;;;;;;;1.48;1.15;;;10.80;99.90;;;;;;5030752;28;20024;-88
2024/02/19 03:48:31;;;;;;;1.10;1.00;;;10.80;99.90;;;;;;5027153;28;20489;-88
2024/02/19 03:50:57;;;;;;;1.88;1.08;;;10.80;99.90;;;;;;5025866;28;20030;-88
2024/02/19 03:53:22;;;;;;;1.25;1.00;;;10.80;99.90;;;;;;5028761;28;20029;-88
2024/02/19 03:55:48;;;;;;;1.20;1.10;;;10.80;99.90;;;;;;5033186;28;20021;-87
2024/02/19 03:58:14;;;;;;;1.10;1.00;;;10.90;99.90;;;;;;5031473;28;20061;-88
2024/02/19 04:00:39;;;;;;;1.88;1.00;;;10.80;99.90;;;;;;5030903;28;20036;-89
2024/02/19 04:03:05;;;;;;;0.80;0.80;;;10.80;99.90;;;;;;5028601;28;20018;-88
2024/02/19 04:05:31;;;;;;;1.75;0.95;;;10.80;99.90;;;;;;5027495;28;20021;-88
2024/02/19 04:07:57;;;;;;;1.75;1.10;;;10.80;99.90;;;;;;5033461;28;20020;-88
2024/02/19 04:10:22;;;;;;;1.95;1.25;;;10.80;99.90;;;;;;5028930;28;20053;-88
2024/02/19 04:12:48;;;;;;;3.67;0.95;;;10.80;99.90;;;;;;5027604;28;20060;-90
2024/02/19 04:15:14;;;;;;;1.23;1.08;;;10.80;99.90;;;;;;5028243;28;20018;-89
2024/02/19 04:17:39;;;;;;;0.98;0.98;;;10.80;99.90;;;;;;5030092;28;20041;-88
2024/02/19 04:20:06;;;;;;;1.73;1.10;;;10.80;99.90;;;;;;5028297;28;20013;-87
2024/02/19 04:22:31;;;;;;;2.28;1.05;;;10.80;99.90;;;;;;5030132;28;20014;-88
2024/02/19 04:24:57;;;;;;;1.42;1.10;;;10.90;99.90;;;;;;5030431;28;20020;-88
2024/02/19 04:27:22;;;;;;;1.25;1.15;;;10.80;99.90;;;;;;5026156;28;20025;-87
2024/02/19 04:29:48;;;;;;;2.15;1.15;;;10.80;99.90;;;;;;5031608;28;20540;-89
2024/02/19 04:32:14;;;;;;;1.15;1.15;;;10.80;99.90;;;;;;5030206;28;20419;-88
2024/02/19 04:34:40;;;;;;;1.75;1.13;;;10.90;99.90;;;;;;5031862;28;20107;-89
2024/02/19 04:37:08;;;;;;;3.08;1.20;;;10.80;99.90;;;;;;5042486;28;20037;-87
2024/02/19 04:39:34;;;;;;;2.65;0.90;;;10.80;99.90;;;;;;5037217;28;20028;-88
2024/02/19 04:42:03;;;;;;;2.10;1.25;;;10.80;99.90;;;;;;5031819;28;20013;-89
2024/02/19 04:44:29;;;;;;;3.40;1.35;;;10.80;99.90;;;;;;5031478;28;20025;-88
2024/02/19 04:46:55;;;;;;;1.30;1.20;;;10.90;99.90;;;;;;5026256;28;20064;-89
2024/02/19 04:49:21;;;;;;;0.93;0.93;;;10.90;99.90;;;;;;5021015;28;20029;-88
2024/02/19 04:51:47;;;;;;;1.15;1.00;;;10.90;99.90;;;;;;5025191;28;20500;-86
2024/02/19 04:54:12;;;;;;;1.55;1.15;;;10.80;99.90;;;;;;5021798;28;20018;-89
2024/02/19 04:56:38;;;;;;;2.05;1.10;;;10.90;99.90;;;;;;5037336;28;20045;-91
2024/02/19 04:59:03;;;;;;;1.65;1.05;;;10.80;99.90;;;;;;5039753;28;20022;-88
2024/02/19 05:01:30;;;;;;;1.33;1.15;;;10.90;99.90;;;;;;5041229;28;20013;-88
2024/02/19 05:03:56;;;;;;;1.00;0.90;;;10.80;99.90;;;;;;5032900;28;20060;-88
2024/02/19 05:06:22;;;;;;;1.20;1.00;;;10.80;99.90;;;;;;5026842;28;20411;-87
2024/02/19 05:08:48;;;;;;;0.98;0.98;;;10.90;99.90;;;;;;5033210;28;20028;-87
2024/02/19 05:11:14;;;;;;;1.30;1.00;;;10.80;99.90;;;;;;5038826;28;20025;-87
2024/02/19 05:13:40;;;;;;;1.13;1.02;;;10.80;99.90;;;;;;5036855;28;20014;-89
2024/02/19 05:16:06;;;;;;;1.95;1.30;;;10.80;99.90;;;;;;5041401;28;20521;-88
2024/02/19 05:18:32;;;;;;;3.67;1.17;;;10.90;99.90;;;;;;5032621;28;20029;-88
2024/02/19 05:20:58;;;;;;;0.95;0.95;;;10.80;99.90;;;;;;5040678;28;20353;-88
2024/02/19 05:23:23;;;;;;;2.17;1.00;;;10.80;99.90;;;;;;5033318;28;20025;-88
2024/02/19 05:25:49;;;;;;;1.65;1.10;;;10.80;99.90;;;;;;5034531;28;20382;-88
2024/02/19 05:28:14;;;;;;;1.35;1.08;;;10.80;99.90;;;;;;5041083;28;20028;-87
2024/02/19 05:30:40;;;;;;;1.10;1.00;;;10.80;99.90;;;;;;5038957;28;20025;-88
2024/02/19 05:33:06;;;;;;;0.80;0.80;;;10.80;99.90;;;;;;5032656;28;20128;-90
2024/02/19 05:35:31;;;;;;;1.52;1.10;;;10.80;99.90;;;;;;5033785;28;20029;-88
2024/02/19 05:37:57;;;;;;;1.20;1.10;;;10.80;99.90;;;;;;5028432;28;20056;-89
2024/02/19 05:40:22;;;;;;;1.15;0.98;;;10.80;99.90;;;;;;5034762;28;20946;-87
2024/02/19 05:42:48;;;;;;;1.17;1.08;;;10.80;99.90;;;;;;5034506;28;20538;-88
2024/02/19 05:45:13;;;;;;;1.13;1.00;;;10.80;99.90;;;;;;5034386;28;20071;-87
2024/02/19 05:47:39;;;;;;;1.33;1.23;;;10.80;99.90;;;;;;5033996;28;20022;-87
2024/02/19 05:50:06;;;;;;;0.90;0.90;;;10.80;99.90;;;;;;5039610;28;20021;-87
2024/02/19 05:52:31;;;;;;;1.88;1.00;;;10.80;99.90;;;;;;5027925;28;20021;-87
2024/02/19 05:54:58;;;;;;;0.82;0.82;;;10.80;99.90;;;;;;5031723;28;20029;-87
2024/02/19 05:57:24;;;;;;;0.93;0.93;;;10.80;99.90;;;;;;5028197;28;20108;-87
2024/02/19 05:59:50;;;;;;;3.30;1.15;;;10.80;99.90;;;;;;5039384;28;20025;-89
2024/02/19 06:02:15;;;;;;;1.23;1.00;;;10.80;99.90;;;;;;5055455;28;20434;-88
2024/02/19 06:04:41;;;;;;;0.77;0.77;;;10.80;99.90;;;;;;5039310;28;20033;-87
2024/02/19 06:07:06;;;;;;;1.02;1.00;;;10.80;99.90;;;;;;5039468;28;20237;-87
2024/02/19 06:09:32;;;;;;;2.95;0.95;;;10.80;99.90;;;;;;5028011;28;20041;-87
2024/02/19 06:11:58;;;;;;;1.10;1.00;;;10.80;99.90;;;;;;5023343;28;20499;-87
2024/02/19 06:14:25;;;;;;;3.10;1.20;;;10.80;99.90;;;;;;5035552;28;20025;-87
2024/02/19 06:16:51;;;;;;;4.13;1.27;;;10.80;99.90;;;;;;5033695;28;20028;-88
2024/02/19 06:19:16;;;;;;;0.80;0.80;;;10.80;99.90;;;;;;5029687;28;20101;-87
2024/02/19 06:21:43;;;;;;;0.93;0.90;;;10.80;99.90;;;;;;5027216;28;20056;-87
2024/02/19 06:24:08;;;;;;;1.10;1.00;;;10.80;99.90;;;;;;5027376;28;20068;-88
2024/02/19 06:26:34;;;;;;;1.02;1.00;;;10.80;99.90;;;;;;5030691;28;20034;-86
2024/02/19 06:29:00;;;;;;;2.25;1.00;;;10.80;99.90;;;;;;5031454;28;20028;-88
2024/02/19 06:31:27;;;;;;;1.65;1.00;;;10.80;99.90;;;;;;5030934;28;20112;-88
2024/02/19 06:33:54;;;;;;;0.82;0.82;;;10.80;99.90;;;;;;5026703;28;20183;-87
2024/02/19 06:36:19;;;;;;;1.05;0.98;;;10.80;99.90;;;;;;5021168;28;20030;-87
2024/02/19 06:38:45;;;;;;;1.10;1.00;;;10.80;99.90;;;;;;5030987;28;20122;-87
2024/02/19 06:41:11;;;;;;;1.40;1.10;;;10.80;99.90;;;;;;5027441;28;20104;-88
2024/02/19 06:43:36;;;;;;;1.88;1.40;;;10.80;99.90;;;;;;5034993;28;20502;-86
2024/02/19 06:46:02;;;;;;;3.63;1.15;;;10.80;99.90;;;;;;5028037;28;20025;-87
2024/02/19 06:48:28;;;;;;;1.20;1.02;;;10.90;99.90;;;;;;5027705;28;20032;-88
2024/02/19 06:50:54;;;;;;;1.27;1.00;;;10.80;99.90;;;;;;5025098;28;20391;-88
2024/02/19 06:53:19;;;;;;;1.10;1.00;;;10.80;99.90;;;;;;5021850;28;20488;-88
2024/02/19 06:55:45;;;;;;;6.70;1.50;;;10.80;99.90;;;;;;5029343;28;20025;-87
2024/02/19 06:58:10;;;;;;;1.85;1.10;;;10.80;99.90;;;;;;5024930;28;20025;-88
2024/02/19 07:00:36;;;;;;;2.22;1.30;;;10.80;99.90;;;;;;5022628;28;20045;-88
2024/02/19 07:03:02;;;;;;;1.20;1.10;;;10.80;99.90;;;;;;5035203;28;20081;-88
2024/02/19 07:05:27;;;;;;;4.57;1.55;;;10.80;99.90;;;;;;5042347;28;20068;-87
2024/02/19 07:07:53;;;;;;;2.03;1.30;;;10.80;99.90;;;;;;5034902;28;20624;-88
2024/02/19 07:10:18;;;;;;;4.22;1.65;;;10.80;99.90;;;;;;5031171;28;20404;-87
2024/02/19 07:12:44;;;;;;;1.52;1.30;;;10.80;99.90;;;;;;5032028;28;20376;-87
2024/02/19 07:15:10;;;;;;;4.78;1.70;;;10.80;99.90;;;;;;5030458;28;20491;-87
2024/02/19 07:17:35;;;;;;;2.35;1.70;;;10.80;99.90;;;;;;5032666;28;20083;-88
2024/02/19 07:20:03;;;;;;;4.07;1.95;;;10.80;99.90;;;;;;5032236;28;20017;-88
2024/02/19 07:22:29;;;;;;;2.55;1.48;;;10.80;99.90;;;;;;5020468;28;20026;-87
2024/02/19 07:24:54;;;;;;;2.03;1.60;;;10.80;99.90;;;;;;5030441;28;20033;-87
2024/02/19 07:27:21;;;;;;;3.65;1.50;;;10.80;99.90;;;;;;5032030;28;20455;-87
2024/02/19 07:29:47;;;;;;;1.85;1.50;;;10.80;99.90;;;;;;5031433;28;20087;-88
2024/02/19 07:32:12;;;;;;;3.80;2.03;;;10.80;99.90;;;;;;5032508;28;20063;-87
2024/02/19 07:34:38;;;;;;;4.15;2.17;;;10.80;99.90;;;;;;5028806;28;20480;-88
2024/02/19 07:37:05;;;;;;;4.05;1.63;;;10.90;99.90;;;;;;5025709;28;20069;-87
2024/02/19 07:39:31;;;;;;;8.77;2.67;;;10.80;99.90;;;;;;5026859;28;20053;-88
2024/02/19 07:41:56;;;;;;;3.20;1.77;;;10.90;99.90;;;;;;5023503;28;20075;-88
2024/02/19 07:44:22;;;;;;;2.60;2.08;;;10.80;99.90;;;;;;5022802;28;20492;-88
2024/02/19 07:46:47;;;;;;;3.33;1.98;;;10.90;99.90;;;;;;5030374;28;20028;-86
2024/02/19 07:49:13;;;;;;;5.30;2.22;;;10.90;99.90;;;;;;5035616;28;20017;-87
2024/02/19 07:51:39;;;;;;;2.88;1.90;;;10.90;99.90;;;;;;5033912;28;20378;-86
2024/02/19 07:54:04;;;;;;;3.40;2.20;;;10.80;99.90;;;;;;5032839;28;20026;-87
2024/02/19 07:56:30;;;;;;;2.97;1.90;;;10.90;99.90;;;;;;5025215;28;20599;-88
2024/02/19 07:58:55;;;;;;;3.63;2.22;;;10.80;99.90;;;;;;5025983;28;20025;-88
2024/02/19 08:01:21;;;;;;;4.70;2.08;;;10.90;99.90;;;;;;5027833;28;20404;-88
2024/02/19 08:03:47;;;;;;;4.47;2.10;;;10.80;99.90;;;;;;5035820;28;20036;-88
2024/02/19 08:06:12;;;;;;;4.30;2.35;;;10.80;99.90;;;;;;5034491;28;20040;-88
2024/02/19 08:08:38;;;;;;;6.20;2.33;;;10.80;99.90;;;;;;5039843;28;20024;-88
2024/02/19 08:11:03;;;;;;;3.47;2.38;;;10.80;99.90;;;;;;5022484;28;20027;-88
2024/02/19 08:13:29;;;;;;;3.00;2.10;;;10.90;99.90;;;;;;5041931;28;20404;-88
2024/02/19 08:15:55;;;;;;;8.00;2.45;;;10.80;99.90;;;;;;5031927;28;20124;-87
2024/02/19 08:18:20;;;;;;;3.97;2.08;;;10.80;99.90;;;;;;5029285;28;20021;-88
2024/02/19 08:20:47;;;;;;;4.25;2.55;;;10.80;99.90;;;;;;5035011;28;20017;-88
2024/02/19 08:23:13;;;;;;;3.22;2.45;;;10.90;99.90;;;;;;5029190;28;20028;-88
2024/02/19 08:25:39;;;;;;;3.85;1.88;;;10.90;99.90;;;;;;5022131;28;20109;-87
2024/02/19 08:28:05;;;;;;;5.15;2.35;;;10.90;99.90;;;;;;5037817;28;20017;-88
2024/02/19 08:30:31;;;;;;;7.72;2.63;;;10.90;99.90;;;;;;5025207;28;20034;-88
2024/02/19 08:32:57;;;;;;;3.83;2.10;;;11.00;99.90;;;;;;5038248;28;20034;-88
2024/02/19 08:35:22;;;;;;;3.65;2.08;;;10.90;99.90;;;;;;5033311;28;20056;-87
2024/02/19 08:37:48;;;;;;;2.40;1.88;;;11.00;99.90;;;;;;5032921;28;20044;-88
2024/02/19 08:40:13;;;;;;;3.75;2.30;;;11.00;99.90;;;;;;5033745;28;20048;-88
2024/02/19 08:42:39;;;;;;;2.88;1.75;;;10.90;99.90;;;;;;5031203;28;20033;-89
2024/02/19 08:45:05;;;;;;;3.30;2.08;;;10.90;99.90;;;;;;5032644;28;20030;-88
2024/02/19 08:47:31;;;;;;;5.97;2.47;;;10.90;99.90;;;;;;5031716;28;20079;-88
2024/02/19 08:49:57;;;;;;;4.90;2.25;;;10.90;99.90;;;;;;5042977;28;20034;-88
2024/02/19 08:52:23;;;;;;;5.00;2.53;;;10.90;99.90;;;;;;5026513;28;20025;-88
2024/02/19 08:54:49;;;;;;;3.80;1.70;;;11.00;99.90;;;;;;5044597;28;20372;-86
2024/02/19 08:57:16;;;;;;;2.85;2.10;;;11.00;99.90;;;;;;5044431;28;20066;-87
2024/02/19 08:59:45;;;;;;;5.28;1.75;;;11.10;99.90;;;;;;5029954;28;20017;-87
2024/02/19 09:02:11;;;;;;;3.70;1.93;;;11.10;99.90;;;;;;5046097;28;20017;-86
2024/02/19 09:04:37;;;;;;;3.50;1.75;;;11.10;99.90;;;;;;5028655;28;20105;-87
2024/02/19 09:07:04;;;;;;;4.15;1.73;;;11.10;99.90;;;;;;5032627;28;20057;-87
2024/02/19 09:09:29;;;;;;;3.38;1.83;;;11.10;99.90;;;;;;5047382;28;20024;-87
2024/02/19 09:11:55;;;;;;;3.83;2.03;;;11.10;99.90;;;;;;5044987;28;20021;-88
2024/02/19 09:14:20;;;;;;;3.97;2.08;;;11.10;99.90;;;;;;5033219;28;20024;-88
2024/02/19 09:16:46;;;;;;;3.28;1.60;;;11.10;99.90;;;;;;5033082;28;20109;-89
2024/02/19 09:19:14;;;;;;;4.13;1.60;;;11.00;99.90;;;;;;5034548;28;20021;-88
2024/02/19 09:21:39;;;;;;;4.75;1.40;;;11.00;99.90;;;;;;5031221;28;20500;-88
2024/02/19 09:24:05;;;;;;;2.80;1.73;;;11.00;99.90;;;;;;5032870;28;20067;-87
2024/02/19 09:26:30;;;;;;;3.70;1.50;;;11.00;99.90;;;;;;5031479;28;20022;-88
2024/02/19 09:28:56;;;;;;;7.97;1.45;;;11.00;99.90;;;;;;5030292;28;20025;-87
2024/02/19 09:31:23;;;;;;;5.13;1.20;;;11.00;99.90;;;;;;5031840;28;20030;-87
2024/02/19 09:33:49;;;;;;;1.92;1.33;;;11.00;99.90;;;;;;5036517;28;20033;-88
2024/02/19 09:36:18;;;;;;;3.05;2.08;;;11.00;99.90;;;;;;5031191;28;20029;-87
2024/02/19 09:38:43;;;;;;;2.70;1.40;;;11.00;99.90;;;;;;5048027;28;20033;-88
2024/02/19 09:41:09;;;;;;;3.33;1.52;;;10.90;99.90;;;;;;5026649;28;20116;-87
2024/02/19 09:43:35;;;;;;;2.85;1.92;;;11.00;99.90;;;;;;5031900;28;20380;-87
2024/02/19 09:46:03;;;;;;;2.97;1.40;;;10.90;99.90;;;;;;5034654;28;20040;-89
2024/02/19 09:48:32;;;;;;;2.92;1.65;;;10.90;99.90;;;;;;5030886;28;20028;-88
2024/02/19 09:51:00;;;;;;;3.72;1.52;;;10.90;99.90;;;;;;5044573;28;20139;-87
2024/02/19 09:53:29;;;;;;;8.02;1.30;;;10.90;99.90;;;;;;5041189;28;20025;-88
2024/02/19 09:55:56;;;;;;;2.00;1.30;;;10.90;99.90;;;;;;5038938;28;20104;-87
2024/02/19 09:58:22;;;;;;;3.85;1.40;;;11.00;99.90;;;;;;5036517;28;20038;-87
2024/02/19 10:00:47;;;;;;;3.47;0.93;;;10.90;99.90;;;;;;5028653;28;20029;-87
2024/02/19 10:03:18;;;;;;;5.28;1.70;;;10.90;99.90;;;;;;5028034;28;20057;-87
2024/02/19 10:05:44;;;;;;;3.42;1.48;;;10.90;99.90;;;;;;5025879;28;20032;-88
2024/02/19 10:08:14;;;;;;;1.30;1.20;;;11.00;99.90;;;;;;5036389;28;20029;-89
2024/02/19 10:10:43;;;;;;;3.08;1.45;;;11.00;99.90;;;;;;5031857;28;20550;-88
2024/02/19 10:13:11;;;;;;;3.37;1.60;;;10.90;99.90;;;;;;5032810;28;20460;-88
2024/02/19 10:15:37;;;;;;;2.13;1.20;;;10.90;99.90;;;;;;5022485;28;20526;-87
2024/02/19 10:18:17;;;;;;;1.90;1.27;;;10.90;99.90;;;;;;5032879;28;20026;-87
2024/02/19 10:20:53;;;;;;;3.35;1.98;;;10.90;99.90;;;;;;5035940;28;20021;-88
2024/02/19 10:23:20;;;;;;;1.40;1.08;;;10.90;99.90;;;;;;5033718;28;20029;-87
2024/02/19 10:25:46;;;;;;;3.72;1.30;;;10.90;99.90;;;;;;5036853;28;20036;-88
2024/02/19 10:28:13;;;;;;;1.75;0.90;;;10.90;99.90;;;;;;5031450;28;20033;-88
2024/02/19 10:30:39;;;;;;;3.15;1.67;;;10.90;99.90;;;;;;5029252;28;20063;-88
2024/02/19 10:33:06;;;;;;;1.85;1.20;;;10.90;99.90;;;;;;5029355;28;20033;-89
2024/02/19 10:35:32;;;;;;;2.28;1.00;;;10.90;99.90;;;;;;5026201;28;20021;-89
2024/02/19 10:38:01;;;;;;;3.03;1.20;;;10.90;99.90;;;;;;5028965;28;20013;-88
2024/02/19 10:40:27;;;;;;;2.60;1.50;;;10.90;99.90;;;;;;5030147;28;20468;-88
2024/02/19 10:42:53;;;;;;;3.17;1.13;;;10.90;99.90;;;;;;5028576;28;20024;-86
2024/02/19 10:45:24;;;;;;;0.75;0.75;;;10.90;99.90;;;;;;5042690;28;20029;-87
2024/02/19 10:47:52;;;;;;;1.38;0.90;;;10.90;99.90;;;;;;5027837;28;20702;-88
2024/02/19 10:50:18;;;;;;;1.10;1.00;;;11.00;99.90;;;;;;5022278;28;20037;-88
2024/02/19 10:52:48;;;;;;;4.43;1.23;;;11.00;99.90;;;;;;5030158;28;20026;-88
2024/02/19 10:55:17;;;;;;;5.50;1.05;;;11.00;99.90;;;;;;5031993;28;20038;-89
2024/02/19 10:57:54;;;;;;;2.63;1.17;;;11.00;99.90;;;;;;5029134;28;20384;-89
2024/02/19 11:00:25;;;;;;;1.50;1.20;;;11.00;99.90;;;;;;5027357;28;20031;-88
2024/02/19 11:03:07;;;;;;;3.30;0.95;;;11.00;99.90;;;;;;5030343;28;20014;-88
2024/02/19 11:05:37;;;;;;;3.42;0.95;;;11.00;99.90;;;;;;5029094;28;20167;-87
2024/02/19 11:08:04;;;;;;;1.10;1.02;;;11.00;99.90;;;;;;5047231;28;20052;-88
2024/02/19 11:10:41;;;;;;;1.88;0.80;;;11.00;99.90;;;;;;5046996;28;20486;-87
2024/02/19 11:13:07;;;;;;;3.45;1.08;;;11.00;99.90;;;;;;5033402;28;20057;-88
2024/02/19 11:15:33;;;;;;;0.93;0.93;;;11.00;99.90;;;;;;5035169;28;20057;-87
2024/02/19 11:18:15;;;;;;;1.88;1.40;;;11.00;99.90;;;;;;5034448;28;20549;-88
2024/02/19 11:20:42;;;;;;;1.98;0.98;;;11.00;99.90;;;;;;5032501;28;20030;-88
2024/02/19 11:23:07;;;;;;;3.05;0.93;;;11.00;99.90;;;;;;5025037;28;20026;-88
2024/02/19 11:25:33;;;;;;;0.70;0.70;;;11.00;99.90;;;;;;5038572;28;20029;-89
2024/02/19 11:27:59;;;;;;;1.33;0.90;;;11.00;99.90;;;;;;5035219;28;20399;-88
2024/02/19 11:30:25;;;;;;;0.80;0.80;;;11.00;99.90;;;;;;5031009;28;20032;-89
2024/02/19 11:33:01;;;;;;;1.10;1.00;;;11.00;99.90;;;;;;5025733;28;20033;-89
2024/02/19 11:35:27;;;;;;;3.22;1.00;;;11.00;99.90;;;;;;5022835;28;20071;-88
2024/02/19 11:37:53;;;;;;;1.73;0.85;;;10.90;99.90;;;;;;5026950;28;20033;-88
2024/02/19 11:40:19;;;;;;;1.30;0.95;;;10.90;99.90;;;;;;5017449;28;20056;-88
2024/02/19 11:42:46;;;;;;;4.07;0.85;;;10.90;99.90;;;;;;5027473;28;20028;-88
2024/02/19 11:45:12;;;;;;;2.47;0.98;;;10.90;99.90;;;;;;5022177;28;20029;-89
2024/02/19 11:47:38;;;;;;;0.85;0.85;;;10.90;99.90;;;;;;5030227;28;20025;-88
2024/02/19 11:50:08;;;;;;;3.15;0.93;;;10.90;99.90;;;;;;5033699;28;20108;-88
2024/02/19 11:52:34;;;;;;;2.55;0.80;;;10.90;99.90;;;;;;5024870;28;20033;-88
2024/02/19 11:55:00;;;;;;;3.40;0.90;;;10.90;99.90;;;;;;5035231;28;20048;-90
2024/02/19 11:57:26;;;;;;;4.07;1.00;;;11.00;99.90;;;;;;5034140;28;20056;-88
2024/02/19 11:59:52;;;;;;;2.67;0.93;;;11.00;99.90;;;;;;5034176;28;20045;-89
2024/02/19 12:02:20;;;;;;;3.55;0.90;;;11.00;99.90;;;;;;5034435;28;20491;-88
2024/02/19 12:04:51;;;;;;;2.05;0.95;;;11.00;99.90;;;;;;5030823;28;20031;-88
2024/02/19 12:07:17;;;;;;;2.92;1.10;;;10.90;99.90;;;;;;5030780;28;20021;-87
2024/02/19 12:09:43;;;;;;;1.40;1.02;;;10.90;99.90;;;;;;5039294;28;20009;-89
2024/02/19 12:12:10;;;;;;;2.58;0.95;;;10.90;99.90;;;;;;5037380;28;20124;-88
2024/02/19 12:14:36;;;;;;;1.23;0.93;;;10.80;99.90;;;;;;5042015;28;20059;-88
2024/02/19 12:17:05;;;;;;;2.40;1.33;;;10.80;99.90;;;;;;5036879;28;20068;-88
2024/02/19 12:19:31;;;;;;;1.33;1.00;;;10.80;99.90;;;;;;5029557;28;20025;-88
2024/02/19 12:21:56;;;;;;;1.45;0.82;;;10.80;99.90;;;;;;5036310;28;20028;-87
2024/02/19 12:24:23;;;;;;;5.72;1.15;;;10.80;99.90;;;;;;5040697;28;20527;-89
2024/02/19 12:26:49;;;;;;;2.42;0.90;;;10.80;99.90;;;;;;5029720;28;20033;-88
2024/02/19 12:29:15;;;;;;;3.22;1.20;;;10.80;99.90;;;;;;5029293;28;20026;-88
2024/02/19 12:31:40;;;;;;;1.77;1.15;;;10.80;99.90;;;;;;5033746;28;20046;-88
2024/02/19 12:34:06;;;;;;;0.80;0.80;;;10.80;99.90;;;;;;5030385;28;20084;-87
2024/02/19 12:36:31;;;;;;;2.28;1.42;;;10.80;99.90;;;;;;5030944;28;20033;-89
2024/02/19 12:38:58;;;;;;;3.10;1.00;;;10.80;99.90;;;;;;5032583;28;20107;-88
2024/02/19 12:41:24;;;;;;;5.80;1.33;;;10.80;99.90;;;;;;5036719;28;20021;-87
2024/02/19 12:43:51;;;;;;;3.45;0.90;;;10.80;99.90;;;;;;5038003;28;20021;-88